Mirabile, Missouri
Current Conditions -  °F | °C
As of 4:15 PM on Monday 26 Jan 2015 (Local Time) from KGPH Reporting Station
Clear Clear  
Wind Chill: 15°   Ceiling: Unl
Heat Index: 15°   Visibility: 10mi
Dew Point:   Wind: 9mph
Humidity: 39%   Direction: 320°NW
Pressure: 29.91"   Gusts: 18mph
Location:  39.5693°N, 94.0956°W
Report Text: KGPH 262215Z AUTO 32008G16KT 10SM CLR 15/01 A2991 RMK AO2
Loading
Personal Weather Stations






























Interactive Weather Map New forecast layout! Learn more

10-Day Weather Forecast

Advertisements
Track Severe Weather on mobile